createdAt,value
2018-06-29T00:00:32.360Z,0.00
2018-06-29T00:01:32.294Z,0.00
2018-06-29T00:02:32.245Z,0.00
2018-06-29T00:03:32.177Z,0.00
2018-06-29T00:04:32.123Z,0.00
2018-06-29T00:05:32.063Z,0.00
2018-06-29T00:06:31.998Z,0.00
2018-06-29T00:07:31.950Z,0.00
2018-06-29T00:08:31.880Z,0.00
2018-06-29T00:09:31.825Z,0.00
2018-06-29T00:10:31.768Z,0.00
2018-06-29T00:11:31.707Z,0.00
2018-06-29T00:12:31.645Z,0.00
2018-06-29T00:13:31.585Z,0.00
2018-06-29T00:14:31.542Z,0.00
2018-06-29T00:15:31.471Z,0.00
2018-06-29T00:16:31.437Z,0.00
2018-06-29T00:17:31.554Z,0.00
2018-06-29T00:18:31.303Z,0.00
2018-06-29T00:19:31.237Z,0.00
2018-06-29T00:20:31.187Z,0.00
2018-06-29T00:21:31.114Z,0.00
2018-06-29T00:22:31.060Z,0.00
2018-06-29T00:23:31.086Z,0.00
2018-06-29T00:24:30.942Z,0.00
2018-06-29T00:25:30.880Z,0.00
2018-06-29T00:26:30.822Z,0.00
2018-06-29T00:27:30.759Z,0.00
2018-06-29T00:28:30.707Z,0.00
2018-06-29T00:29:30.643Z,0.00
2018-06-29T00:30:30.581Z,0.00
2018-06-29T00:31:30.526Z,0.00
2018-06-29T00:32:30.462Z,0.00
2018-06-29T00:33:30.413Z,0.00
2018-06-29T00:34:30.348Z,0.00
2018-06-29T00:35:30.290Z,0.00
2018-06-29T00:36:30.229Z,0.00
2018-06-29T00:37:30.172Z,0.00
2018-06-29T00:38:30.108Z,0.00
2018-06-29T00:39:30.048Z,0.00
2018-06-29T00:40:29.988Z,0.00
2018-06-29T00:41:29.942Z,0.00
2018-06-29T00:42:29.890Z,0.00
2018-06-29T00:43:29.821Z,0.00
2018-06-29T00:44:29.753Z,0.00
2018-06-29T00:45:29.704Z,0.00
2018-06-29T00:46:29.637Z,0.00
2018-06-29T00:47:29.578Z,0.00
2018-06-29T00:48:29.521Z,0.00
2018-06-29T00:49:29.464Z,0.00
2018-06-29T00:50:29.401Z,0.00
2018-06-29T00:51:29.336Z,0.00
2018-06-29T00:52:29.280Z,0.00
2018-06-29T00:53:29.221Z,0.00
2018-06-29T00:54:29.223Z,0.00
2018-06-29T00:55:29.103Z,0.00
2018-06-29T00:56:29.043Z,0.00
2018-06-29T00:57:28.985Z,0.00
2018-06-29T00:58:28.925Z,0.00
2018-06-29T00:59:28.860Z,0.00
2018-06-29T01:00:28.816Z,0.00
2018-06-29T01:01:28.756Z,0.00
2018-06-29T01:02:28.687Z,0.00
2018-06-29T01:03:28.628Z,0.00
2018-06-29T01:04:28.569Z,0.00
2018-06-29T01:05:28.514Z,0.00
2018-06-29T01:06:28.451Z,0.00
2018-06-29T01:07:28.397Z,0.00
2018-06-29T01:08:28.334Z,0.00
2018-06-29T01:09:28.268Z,0.00
2018-06-29T01:10:28.210Z,0.00
2018-06-29T01:11:28.150Z,0.00
2018-06-29T01:12:28.090Z,0.00
2018-06-29T01:13:28.027Z,0.00
2018-06-29T01:14:27.974Z,0.00
2018-06-29T01:15:27.915Z,0.00
2018-06-29T01:16:27.851Z,0.00
2018-06-29T01:17:27.792Z,0.00
2018-06-29T01:18:27.738Z,0.00
2018-06-29T01:19:27.674Z,0.00
2018-06-29T01:20:27.617Z,0.00
2018-06-29T01:21:27.616Z,0.00
2018-06-29T01:22:27.492Z,0.00
2018-06-29T01:23:27.440Z,0.00
2018-06-29T01:24:27.375Z,0.00
2018-06-29T01:25:27.316Z,0.00
2018-06-29T01:26:27.260Z,0.00
2018-06-29T01:27:27.204Z,0.00
2018-06-29T01:28:27.141Z,0.00
2018-06-29T01:29:27.080Z,0.00
2018-06-29T01:30:27.027Z,0.00
2018-06-29T01:31:26.963Z,0.00
2018-06-29T01:32:26.899Z,0.00
2018-06-29T01:33:26.840Z,0.00
2018-06-29T01:34:26.782Z,0.00
2018-06-29T01:35:26.724Z,0.00
2018-06-29T01:36:26.656Z,0.00
2018-06-29T01:37:26.601Z,0.00
2018-06-29T01:38:26.542Z,0.00
2018-06-29T01:39:26.483Z,0.00
2018-06-29T01:40:26.423Z,0.00
2018-06-29T01:41:26.422Z,0.00
2018-06-29T01:42:26.299Z,0.00
2018-06-29T01:43:26.242Z,0.00
2018-06-29T01:44:26.185Z,0.00
2018-06-29T01:45:26.117Z,0.00
2018-06-29T01:46:26.070Z,0.00
2018-06-29T01:47:26.020Z,0.00
2018-06-29T01:48:25.943Z,0.00
2018-06-29T01:49:25.888Z,0.00
2018-06-29T01:50:25.833Z,0.00
2018-06-29T01:51:25.768Z,0.00
2018-06-29T01:52:25.704Z,0.00
2018-06-29T01:53:25.648Z,0.00
2018-06-29T01:54:25.588Z,0.00
2018-06-29T01:55:25.523Z,0.00
2018-06-29T01:56:25.470Z,0.00
2018-06-29T01:57:25.402Z,0.00
2018-06-29T01:58:25.351Z,0.00
2018-06-29T01:59:25.285Z,0.00
2018-06-29T02:00:25.226Z,0.00
2018-06-29T02:01:25.165Z,0.00
2018-06-29T02:02:25.105Z,0.00
2018-06-29T02:03:25.046Z,0.00
2018-06-29T02:04:24.986Z,0.00
2018-06-29T02:05:24.932Z,0.00
2018-06-29T02:06:24.867Z,0.00
2018-06-29T02:07:24.804Z,0.00
2018-06-29T02:08:24.747Z,0.00
2018-06-29T02:09:24.685Z,0.00
2018-06-29T02:10:24.624Z,0.00
2018-06-29T02:11:24.568Z,0.00
2018-06-29T02:12:24.509Z,0.00
2018-06-29T02:13:24.453Z,0.00
2018-06-29T02:14:24.385Z,0.00
2018-06-29T02:15:24.340Z,0.00
2018-06-29T02:16:24.270Z,0.00
2018-06-29T02:17:24.206Z,0.00
2018-06-29T02:18:24.155Z,0.00
2018-06-29T02:19:24.088Z,0.00
2018-06-29T02:20:24.030Z,0.00
2018-06-29T02:21:23.965Z,0.00
2018-06-29T02:22:23.913Z,0.00
2018-06-29T02:23:23.850Z,0.00
2018-06-29T02:24:23.787Z,0.00
2018-06-29T02:25:23.752Z,0.00
2018-06-29T02:26:23.667Z,0.00
2018-06-29T02:27:23.604Z,0.00
2018-06-29T02:28:23.542Z,0.00
2018-06-29T02:29:23.485Z,0.00
2018-06-29T02:30:23.492Z,0.00
2018-06-29T02:31:23.374Z,0.00
2018-06-29T02:32:23.306Z,0.00
2018-06-29T02:33:23.247Z,0.00
2018-06-29T02:34:23.184Z,0.00
2018-06-29T02:35:23.125Z,0.00
2018-06-29T02:36:23.064Z,5.63
2018-06-29T02:37:23.004Z,5.63
2018-06-29T02:38:22.944Z,5.63
2018-06-29T02:39:22.892Z,5.63
2018-06-29T02:40:22.821Z,5.63
2018-06-29T02:41:22.772Z,5.63
2018-06-29T02:42:22.714Z,5.63
2018-06-29T02:43:22.642Z,5.63
2018-06-29T02:44:22.589Z,5.63
2018-06-29T02:45:22.528Z,11.25
2018-06-29T02:46:22.463Z,11.25
2018-06-29T02:47:22.414Z,11.25
2018-06-29T02:48:22.347Z,11.25
2018-06-29T02:49:22.284Z,11.25
2018-06-29T02:50:22.229Z,16.88
2018-06-29T02:51:22.169Z,16.88
2018-06-29T02:52:22.107Z,16.88
2018-06-29T02:53:22.044Z,16.88
2018-06-29T02:54:21.984Z,16.88
2018-06-29T02:55:21.929Z,22.50
2018-06-29T02:56:21.862Z,22.50
2018-06-29T02:57:21.801Z,22.50
2018-06-29T02:58:21.744Z,22.50
2018-06-29T02:59:21.679Z,28.13
2018-06-29T03:00:21.618Z,28.13
2018-06-29T03:01:21.559Z,28.13
2018-06-29T03:02:21.506Z,33.75
2018-06-29T03:03:21.440Z,33.75
2018-06-29T03:04:21.383Z,33.75
2018-06-29T03:05:21.322Z,33.75
2018-06-29T03:06:21.256Z,39.38
2018-06-29T03:07:21.196Z,39.38
2018-06-29T03:08:21.140Z,39.38
2018-06-29T03:09:21.082Z,39.38
2018-06-29T03:10:21.018Z,45.00
2018-06-29T03:11:20.954Z,45.00
2018-06-29T03:12:20.895Z,45.00
2018-06-29T03:13:20.829Z,50.63
2018-06-29T03:14:20.783Z,50.63
2018-06-29T03:15:20.716Z,50.63
2018-06-29T03:16:20.654Z,56.25
2018-06-29T03:17:20.607Z,56.25
2018-06-29T03:18:20.531Z,56.25
2018-06-29T03:19:20.474Z,61.88
2018-06-29T03:20:20.420Z,61.88
2018-06-29T03:21:20.350Z,67.50
2018-06-29T03:22:20.294Z,67.50
2018-06-29T03:23:20.237Z,67.50
2018-06-29T03:24:20.167Z,73.13
2018-06-29T03:25:20.157Z,73.13
2018-06-29T03:26:20.057Z,73.13
2018-06-29T03:27:19.987Z,78.75
2018-06-29T03:28:19.933Z,78.75
2018-06-29T03:29:19.877Z,78.75
2018-06-29T03:30:19.803Z,84.38
2018-06-29T03:31:19.760Z,84.38
2018-06-29T03:32:19.688Z,90.00
2018-06-29T03:33:19.626Z,90.00
2018-06-29T03:34:19.566Z,90.00
2018-06-29T03:35:19.507Z,95.63
2018-06-29T03:36:19.447Z,95.63
2018-06-29T03:37:19.391Z,95.63
2018-06-29T03:38:19.323Z,101.25
2018-06-29T03:39:19.272Z,101.25
2018-06-29T03:40:19.262Z,101.25
2018-06-29T03:41:19.145Z,101.25
2018-06-29T03:42:19.084Z,106.88
2018-06-29T03:43:19.022Z,106.88
2018-06-29T03:44:18.961Z,106.88
2018-06-29T03:45:18.902Z,106.88
2018-06-29T03:46:18.844Z,112.50
2018-06-29T03:47:18.782Z,112.50
2018-06-29T03:48:18.718Z,112.50
2018-06-29T03:49:18.659Z,118.13
2018-06-29T03:50:18.598Z,118.13
2018-06-29T03:51:18.535Z,118.13
2018-06-29T03:52:18.472Z,123.75
2018-06-29T03:53:18.415Z,123.75
2018-06-29T03:54:18.357Z,129.38
2018-06-29T03:55:18.304Z,129.38
2018-06-29T03:56:18.234Z,135.00
2018-06-29T03:57:18.175Z,135.00
2018-06-29T03:58:18.120Z,140.63
2018-06-29T03:59:18.055Z,140.63
2018-06-29T04:00:17.994Z,146.25
2018-06-29T04:01:17.937Z,146.25
2018-06-29T04:02:17.875Z,146.25
2018-06-29T04:03:17.867Z,151.88
2018-06-29T04:04:17.747Z,151.88
2018-06-29T04:05:17.690Z,151.88
2018-06-29T04:06:17.631Z,157.50
2018-06-29T04:07:17.571Z,157.50
2018-06-29T04:08:17.511Z,157.50
2018-06-29T04:09:17.450Z,163.13
2018-06-29T04:10:17.381Z,163.13
2018-06-29T04:11:17.325Z,163.13
2018-06-29T04:12:17.285Z,163.13
2018-06-29T04:13:17.216Z,163.13
2018-06-29T04:14:17.142Z,163.13
2018-06-29T04:15:17.085Z,168.75
2018-06-29T04:16:17.036Z,168.75
2018-06-29T04:17:16.964Z,168.75
2018-06-29T04:18:16.910Z,174.38
2018-06-29T04:19:16.849Z,174.38
2018-06-29T04:20:16.804Z,180.00
2018-06-29T04:21:16.729Z,180.00
2018-06-29T04:22:16.666Z,180.00
2018-06-29T04:23:16.603Z,185.63
2018-06-29T04:24:16.562Z,185.63
2018-06-29T04:25:16.482Z,185.63
2018-06-29T04:26:16.431Z,191.25
2018-06-29T04:27:16.362Z,191.25
2018-06-29T04:28:16.304Z,191.25
2018-06-29T04:29:16.245Z,196.88
2018-06-29T04:30:16.194Z,196.88
2018-06-29T04:31:16.126Z,196.88
2018-06-29T04:32:16.065Z,202.50
2018-06-29T04:33:15.998Z,202.50
2018-06-29T04:34:15.943Z,202.50
2018-06-29T04:35:15.877Z,208.13
2018-06-29T04:36:15.824Z,208.13
2018-06-29T04:37:15.757Z,213.75
2018-06-29T04:38:15.700Z,213.75
2018-06-29T04:39:15.640Z,213.75
2018-06-29T04:40:15.577Z,219.38
2018-06-29T04:41:15.517Z,213.75
2018-06-29T04:42:15.455Z,219.38
2018-06-29T04:43:15.395Z,225.00
2018-06-29T04:44:15.333Z,230.63
2018-06-29T04:45:15.277Z,230.63
2018-06-29T04:46:15.219Z,230.63
2018-06-29T04:47:15.164Z,241.88
2018-06-29T04:48:15.096Z,241.88
2018-06-29T04:49:15.053Z,241.88
2018-06-29T04:50:14.975Z,241.88
2018-06-29T04:51:14.915Z,241.88
2018-06-29T04:52:14.858Z,241.88
2018-06-29T04:53:14.813Z,241.88
2018-06-29T04:54:14.734Z,241.88
2018-06-29T04:55:14.668Z,241.88
2018-06-29T04:56:14.614Z,247.50
2018-06-29T04:57:14.550Z,247.50
2018-06-29T04:58:14.500Z,247.50
2018-06-29T04:59:14.447Z,247.50
2018-06-29T05:00:14.373Z,258.75
2018-06-29T05:01:14.312Z,258.75
2018-06-29T05:02:14.264Z,253.13
2018-06-29T05:03:14.197Z,258.75
2018-06-29T05:04:14.134Z,258.75
2018-06-29T05:05:14.079Z,258.75
2018-06-29T05:06:14.015Z,258.75
2018-06-29T05:07:13.951Z,264.38
2018-06-29T05:08:13.904Z,264.38
2018-06-29T05:09:13.833Z,264.38
2018-06-29T05:10:13.775Z,270.00
2018-06-29T05:11:13.717Z,275.63
2018-06-29T05:12:13.655Z,275.63
2018-06-29T05:13:13.595Z,298.13
2018-06-29T05:14:13.534Z,320.63
2018-06-29T05:15:13.477Z,320.63
2018-06-29T05:16:13.413Z,309.38
2018-06-29T05:17:13.358Z,298.13
2018-06-29T05:18:13.297Z,365.63
2018-06-29T05:19:13.233Z,472.50
2018-06-29T05:20:13.177Z,534.38
2018-06-29T05:21:13.116Z,551.25
2018-06-29T05:22:13.059Z,517.50
2018-06-29T05:23:13.000Z,461.25
2018-06-29T05:24:12.938Z,376.88
2018-06-29T05:25:13.448Z,309.38
2018-06-29T05:26:12.821Z,292.50
2018-06-29T05:27:12.760Z,292.50
2018-06-29T05:28:12.703Z,326.25
2018-06-29T05:29:12.644Z,331.88
2018-06-29T05:30:12.587Z,309.38
2018-06-29T05:31:12.527Z,298.13
2018-06-29T05:32:12.466Z,298.13
2018-06-29T05:33:12.409Z,298.13
2018-06-29T05:34:12.352Z,303.75
2018-06-29T05:35:12.292Z,303.75
2018-06-29T05:36:12.233Z,303.75
2018-06-29T05:37:12.175Z,303.75
2018-06-29T05:38:12.110Z,303.75
2018-06-29T05:39:12.056Z,298.13
2018-06-29T05:40:12.005Z,303.75
2018-06-29T05:41:11.932Z,303.75
2018-06-29T05:42:11.883Z,303.75
2018-06-29T05:43:11.819Z,303.75
2018-06-29T05:44:11.760Z,303.75
2018-06-29T05:45:11.703Z,303.75
2018-06-29T05:46:11.680Z,309.38
2018-06-29T05:47:11.584Z,309.38
2018-06-29T05:48:11.526Z,309.38
2018-06-29T05:49:11.532Z,309.38
2018-06-29T05:50:11.404Z,309.38
2018-06-29T05:51:11.348Z,315.00
2018-06-29T05:52:11.288Z,315.00
2018-06-29T05:53:11.231Z,315.00
2018-06-29T05:54:11.172Z,315.00
2018-06-29T05:55:11.113Z,315.00
2018-06-29T05:56:11.056Z,315.00
2018-06-29T05:57:10.992Z,320.63
2018-06-29T05:58:10.934Z,320.63
2018-06-29T05:59:10.876Z,320.63
2018-06-29T06:00:10.821Z,320.63
2018-06-29T06:01:10.758Z,320.63
2018-06-29T06:02:11.523Z,320.63
2018-06-29T06:03:10.648Z,326.25
2018-06-29T06:04:10.579Z,326.25
2018-06-29T06:05:10.522Z,326.25
2018-06-29T06:06:10.464Z,326.25
2018-06-29T06:07:10.407Z,326.25
2018-06-29T06:08:10.355Z,326.25
2018-06-29T06:09:10.288Z,331.88
2018-06-29T06:10:10.282Z,331.88
2018-06-29T06:11:10.169Z,331.88
2018-06-29T06:12:10.106Z,331.88
2018-06-29T06:13:10.053Z,331.88
2018-06-29T06:14:09.994Z,331.88
2018-06-29T06:15:09.938Z,337.50
2018-06-29T06:16:09.919Z,331.88
2018-06-29T06:17:10.021Z,331.88
2018-06-29T06:18:09.762Z,337.50
2018-06-29T06:19:09.704Z,337.50
2018-06-29T06:20:09.698Z,337.50
2018-06-29T06:21:09.593Z,337.50
2018-06-29T06:22:09.528Z,337.50
2018-06-29T06:23:09.467Z,337.50
2018-06-29T06:24:09.410Z,337.50
2018-06-29T06:25:09.356Z,337.50
2018-06-29T06:26:09.295Z,337.50
2018-06-29T06:27:09.238Z,337.50
2018-06-29T06:28:09.181Z,343.13
2018-06-29T06:29:09.119Z,343.13
2018-06-29T06:30:09.063Z,343.13
2018-06-29T06:31:09.002Z,343.13
2018-06-29T06:32:08.951Z,343.13
2018-06-29T06:33:08.898Z,343.13
2018-06-29T06:34:08.831Z,348.75
2018-06-29T06:35:08.783Z,343.13
2018-06-29T06:36:08.713Z,343.13
2018-06-29T06:37:08.653Z,343.13
2018-06-29T06:38:08.597Z,343.13
2018-06-29T06:39:08.541Z,343.13
2018-06-29T06:40:08.484Z,343.13
2018-06-29T06:41:08.427Z,343.13
2018-06-29T06:42:08.365Z,348.75
2018-06-29T06:43:08.308Z,343.13
2018-06-29T06:44:08.256Z,343.13
2018-06-29T06:45:08.190Z,343.13
2018-06-29T06:46:08.135Z,343.13
2018-06-29T06:47:08.080Z,343.13
2018-06-29T06:48:08.020Z,348.75
2018-06-29T06:49:07.969Z,348.75
2018-06-29T06:50:07.905Z,348.75
2018-06-29T06:51:07.845Z,348.75
2018-06-29T06:52:07.794Z,354.38
2018-06-29T06:53:07.750Z,348.75
2018-06-29T06:54:07.670Z,354.38
2018-06-29T06:55:07.617Z,348.75
2018-06-29T06:56:07.557Z,348.75
2018-06-29T06:57:07.499Z,348.75
2018-06-29T06:58:07.445Z,348.75
2018-06-29T06:59:07.392Z,354.38
2018-06-29T07:00:07.334Z,348.75
2018-06-29T07:01:07.272Z,348.75
2018-06-29T07:02:07.211Z,354.38
2018-06-29T07:03:07.191Z,348.75
2018-06-29T07:04:07.104Z,348.75
2018-06-29T07:05:07.040Z,348.75
2018-06-29T07:06:06.985Z,348.75
2018-06-29T07:07:06.929Z,348.75
2018-06-29T07:08:06.886Z,348.75
2018-06-29T07:09:06.811Z,348.75
2018-06-29T07:10:06.765Z,348.75
2018-06-29T07:11:06.703Z,348.75
2018-06-29T07:12:06.639Z,354.38
2018-06-29T07:13:06.587Z,348.75
2018-06-29T07:14:06.527Z,348.75
2018-06-29T07:15:06.470Z,354.38
2018-06-29T07:16:06.407Z,348.75
2018-06-29T07:17:06.355Z,348.75
2018-06-29T07:18:06.312Z,348.75
2018-06-29T07:19:06.245Z,348.75
2018-06-29T07:20:06.191Z,348.75
2018-06-29T07:21:06.128Z,354.38
2018-06-29T07:22:06.068Z,354.38
2018-06-29T07:23:06.012Z,354.38
2018-06-29T07:24:05.957Z,354.38
2018-06-29T07:25:05.900Z,354.38
2018-06-29T07:26:05.849Z,354.38
2018-06-29T07:27:05.788Z,354.38
2018-06-29T07:28:05.722Z,354.38
2018-06-29T07:29:05.683Z,354.38
2018-06-29T07:30:05.687Z,354.38
2018-06-29T07:31:05.558Z,354.38
2018-06-29T07:32:05.500Z,354.38
2018-06-29T07:33:05.445Z,354.38
2018-06-29T07:34:05.392Z,354.38
2018-06-29T07:35:05.338Z,354.38
2018-06-29T07:36:05.272Z,354.38
2018-06-29T07:37:05.215Z,354.38
2018-06-29T07:38:05.161Z,354.38
2018-06-29T07:39:05.103Z,354.38
2018-06-29T07:40:05.041Z,354.38
2018-06-29T07:41:04.988Z,354.38
2018-06-29T07:42:04.938Z,354.38
2018-06-29T07:43:04.876Z,354.38
2018-06-29T07:44:04.819Z,354.38
2018-06-29T07:45:04.764Z,354.38
2018-06-29T07:46:04.719Z,354.38
2018-06-29T07:47:04.647Z,348.75
2018-06-29T07:48:04.593Z,348.75
2018-06-29T07:49:04.533Z,348.75
2018-06-29T07:50:04.480Z,348.75
2018-06-29T07:51:04.426Z,348.75
2018-06-29T07:52:04.373Z,348.75
2018-06-29T07:53:04.315Z,348.75
2018-06-29T07:54:04.256Z,354.38
2018-06-29T07:55:04.193Z,348.75
2018-06-29T07:56:04.144Z,348.75
2018-06-29T07:57:04.109Z,348.75
2018-06-29T07:58:04.041Z,348.75
2018-06-29T07:59:03.979Z,348.75
2018-06-29T08:00:03.912Z,348.75
2018-06-29T08:01:03.862Z,348.75
2018-06-29T08:02:03.801Z,348.75
2018-06-29T08:03:03.750Z,348.75
2018-06-29T08:04:03.689Z,348.75
2018-06-29T08:05:03.633Z,348.75
2018-06-29T08:06:03.579Z,348.75
2018-06-29T08:07:03.516Z,348.75
2018-06-29T08:08:03.460Z,348.75
2018-06-29T08:09:03.406Z,348.75
2018-06-29T08:10:03.351Z,348.75
2018-06-29T08:11:03.295Z,348.75
2018-06-29T08:12:03.240Z,343.13
2018-06-29T08:13:03.175Z,343.13
2018-06-29T08:14:03.149Z,343.13
2018-06-29T08:15:03.069Z,343.13
2018-06-29T08:16:03.015Z,343.13
2018-06-29T08:17:02.959Z,348.75
2018-06-29T08:18:02.906Z,343.13
2018-06-29T08:19:02.845Z,348.75
2018-06-29T08:20:02.789Z,343.13
2018-06-29T08:21:02.729Z,343.13
2018-06-29T08:22:02.675Z,343.13
2018-06-29T08:23:02.621Z,343.13
2018-06-29T08:24:02.567Z,348.75
2018-06-29T08:25:02.507Z,348.75
2018-06-29T08:26:02.445Z,343.13
2018-06-29T08:27:02.393Z,337.50
2018-06-29T08:28:02.340Z,343.13
2018-06-29T08:29:02.282Z,343.13
2018-06-29T08:30:02.224Z,343.13
2018-06-29T08:31:02.171Z,337.50
2018-06-29T08:32:02.118Z,343.13
2018-06-29T08:33:02.057Z,343.13
2018-06-29T08:34:02.002Z,343.13
2018-06-29T08:35:01.946Z,343.13
2018-06-29T08:36:01.891Z,343.13
2018-06-29T08:37:01.840Z,343.13
2018-06-29T08:38:01.779Z,343.13
2018-06-29T08:39:01.718Z,343.13
2018-06-29T08:40:01.661Z,343.13
2018-06-29T08:41:01.608Z,343.13
2018-06-29T08:42:01.554Z,343.13
2018-06-29T08:43:01.498Z,343.13
2018-06-29T08:44:01.441Z,348.75
2018-06-29T08:45:01.386Z,348.75
2018-06-29T08:46:01.329Z,348.75
2018-06-29T08:47:01.303Z,348.75
2018-06-29T08:48:01.216Z,343.13
2018-06-29T08:49:01.159Z,348.75
2018-06-29T08:50:01.114Z,348.75
2018-06-29T08:51:01.043Z,348.75
2018-06-29T08:52:00.991Z,348.75
2018-06-29T08:53:00.944Z,354.38
2018-06-29T08:54:00.888Z,354.38
2018-06-29T08:55:00.887Z,354.38
2018-06-29T08:56:00.770Z,354.38
2018-06-29T08:57:00.711Z,354.38
2018-06-29T08:58:00.655Z,354.38
2018-06-29T08:59:00.597Z,354.38
2018-06-29T09:00:00.563Z,360.00
2018-06-29T09:01:00.492Z,354.38
2018-06-29T09:02:00.430Z,360.00
2018-06-29T09:03:00.377Z,360.00
2018-06-29T09:04:00.320Z,365.63
2018-06-29T09:05:00.329Z,365.63
2018-06-29T09:06:00.207Z,371.25
2018-06-29T09:07:00.156Z,371.25
2018-06-29T09:08:00.097Z,371.25
2018-06-29T09:09:00.041Z,371.25
2018-06-29T09:09:59.984Z,371.25
2018-06-29T09:10:59.984Z,371.25
2018-06-29T09:11:59.872Z,376.88
2018-06-29T09:12:59.813Z,376.88
2018-06-29T09:13:59.762Z,376.88
2018-06-29T09:14:59.705Z,376.88
2018-06-29T09:15:59.676Z,376.88
2018-06-29T09:16:59.593Z,376.88
2018-06-29T09:17:59.541Z,382.50
2018-06-29T09:18:59.541Z,382.50
2018-06-29T09:19:59.445Z,388.13
2018-06-29T09:20:59.371Z,388.13
2018-06-29T09:21:59.316Z,393.75
2018-06-29T09:22:59.258Z,399.38
2018-06-29T09:23:59.201Z,399.38
2018-06-29T09:24:59.144Z,399.38
2018-06-29T09:25:59.094Z,405.00
2018-06-29T09:26:59.040Z,410.63
2018-06-29T09:27:58.987Z,410.63
2018-06-29T09:28:58.931Z,410.63
2018-06-29T09:29:58.893Z,416.25
2018-06-29T09:30:58.813Z,421.88
2018-06-29T09:31:58.762Z,421.88
2018-06-29T09:32:58.701Z,427.50
2018-06-29T09:33:58.676Z,427.50
2018-06-29T09:34:58.591Z,433.13
2018-06-29T09:35:58.540Z,438.75
2018-06-29T09:36:58.478Z,450.00
2018-06-29T09:37:58.430Z,461.25
2018-06-29T09:38:58.369Z,472.50
2018-06-29T09:39:58.318Z,483.75
2018-06-29T09:40:58.263Z,489.38
2018-06-29T09:41:58.205Z,495.00
2018-06-29T09:42:58.164Z,506.25
2018-06-29T09:43:58.095Z,506.25
2018-06-29T09:44:58.038Z,511.88
2018-06-29T09:45:57.987Z,534.38
2018-06-29T09:46:57.932Z,540.00
2018-06-29T09:47:57.960Z,556.88
2018-06-29T09:48:57.820Z,579.38
2018-06-29T09:49:57.763Z,590.63
2018-06-29T09:50:57.710Z,607.50
2018-06-29T09:51:57.657Z,618.75
2018-06-29T09:52:57.599Z,624.38
2018-06-29T09:53:57.579Z,635.63
2018-06-29T09:54:57.488Z,641.25
2018-06-29T09:55:57.442Z,641.25
2018-06-29T09:56:57.383Z,618.75
2018-06-29T09:57:57.324Z,613.13
2018-06-29T09:58:57.271Z,607.50
2018-06-29T09:59:57.211Z,590.63
2018-06-29T10:00:57.191Z,562.50
2018-06-29T10:01:57.102Z,534.38
2018-06-29T10:02:57.048Z,511.88
2018-06-29T10:03:56.995Z,506.25
2018-06-29T10:04:56.938Z,483.75
2018-06-29T10:05:56.889Z,466.88
2018-06-29T10:06:56.838Z,438.75
2018-06-29T10:07:56.772Z,421.88
2018-06-29T10:08:56.728Z,410.63
2018-06-29T10:09:56.681Z,416.25
2018-06-29T10:10:56.635Z,427.50
2018-06-29T10:11:56.577Z,438.75
2018-06-29T10:12:56.542Z,444.38
2018-06-29T10:13:56.449Z,461.25
2018-06-29T10:14:56.392Z,466.88
2018-06-29T10:15:56.348Z,489.38
2018-06-29T10:16:56.310Z,495.00
2018-06-29T10:17:56.235Z,500.63
2018-06-29T10:18:56.191Z,506.25
2018-06-29T10:19:56.235Z,511.88
2018-06-29T10:20:56.076Z,523.13
2018-06-29T10:21:56.026Z,534.38
2018-06-29T10:22:55.963Z,545.63
2018-06-29T10:23:55.904Z,545.63
2018-06-29T10:24:55.858Z,556.88
2018-06-29T10:25:55.826Z,556.88
2018-06-29T10:26:55.732Z,556.88
2018-06-29T10:27:55.793Z,562.50
2018-06-29T10:28:55.646Z,573.75
2018-06-29T10:29:55.570Z,568.13
2018-06-29T10:30:55.600Z,579.38
2018-06-29T10:31:55.460Z,613.13
2018-06-29T10:32:55.407Z,635.63
2018-06-29T10:33:55.361Z,675.00
2018-06-29T10:34:55.301Z,731.25
2018-06-29T10:35:55.325Z,753.75
2018-06-29T10:36:55.197Z,765.00
2018-06-29T10:37:55.173Z,770.63
2018-06-29T10:38:55.102Z,787.50
2018-06-29T10:39:55.026Z,804.38
2018-06-29T10:40:54.965Z,810.00
2018-06-29T10:41:54.914Z,810.00
2018-06-29T10:42:54.860Z,793.13
2018-06-29T10:43:54.841Z,770.63
2018-06-29T10:44:54.807Z,748.13
2018-06-29T10:45:54.765Z,736.88
2018-06-29T10:46:54.686Z,725.63
2018-06-29T10:47:54.591Z,703.13
2018-06-29T10:48:54.557Z,669.38
2018-06-29T10:49:54.476Z,630.00
2018-06-29T10:50:54.485Z,624.38
2018-06-29T10:51:54.400Z,618.75
2018-06-29T10:52:54.379Z,613.13
2018-06-29T10:53:54.291Z,601.88
2018-06-29T10:54:54.205Z,601.88
2018-06-29T10:55:54.204Z,607.50
2018-06-29T10:56:54.094Z,607.50
2018-06-29T10:57:54.043Z,601.88
2018-06-29T10:59:01.782Z,596.25
2018-06-29T11:00:48.314Z,590.63
2018-06-29T11:01:48.243Z,596.25
2018-06-29T11:03:42.524Z,601.88
2018-06-29T11:04:42.434Z,590.63
2018-06-29T11:06:36.762Z,545.63
2018-06-29T11:07:36.679Z,607.50
2018-06-29T11:09:31.205Z,630.00
2018-06-29T11:10:30.951Z,646.88
2018-06-29T11:12:24.327Z,669.38
2018-06-29T11:13:24.197Z,663.75
2018-06-29T11:15:20.232Z,691.88
2018-06-29T11:16:19.265Z,720.00
2018-06-29T11:18:13.028Z,770.63
2018-06-29T11:19:13.901Z,810.00
2018-06-29T11:21:09.210Z,883.13
2018-06-29T11:22:15.918Z,950.63
2018-06-29T11:24:09.100Z,3076.88
2018-06-29T11:25:00.510Z,4494.38
2018-06-29T11:26:53.515Z,4893.75
2018-06-29T11:27:53.336Z,5079.38
2018-06-29T11:29:46.882Z,4567.50
2018-06-29T11:30:55.459Z,4213.13
2018-06-29T11:32:40.130Z,4168.13
2018-06-29T11:33:48.359Z,4173.75
2018-06-29T11:35:33.614Z,4314.38
2018-06-29T11:36:33.179Z,4336.88
2018-06-29T11:38:26.641Z,3206.25
2018-06-29T11:39:34.359Z,2823.75
2018-06-29T11:41:19.955Z,2722.50
2018-06-29T11:42:19.632Z,3043.13
2018-06-29T11:44:14.307Z,2255.63
2018-06-29T11:45:13.851Z,1676.25
2018-06-29T11:47:10.424Z,1552.50
2018-06-29T11:48:08.170Z,1614.38
2018-06-29T11:50:03.394Z,1721.25
2018-06-29T11:51:03.282Z,1260.00
2018-06-29T11:52:03.115Z,1293.75
2018-06-29T11:53:02.340Z,2278.13
2018-06-29T11:54:03.468Z,2947.50
2018-06-29T11:55:01.309Z,3571.88
2018-06-29T11:56:01.263Z,4111.88
2018-06-29T11:57:01.230Z,4865.63
2018-06-29T11:58:01.179Z,5225.63
2018-06-29T11:59:03.053Z,5670.00
2018-06-29T12:00:01.129Z,5304.38
2018-06-29T12:01:01.023Z,3189.38
2018-06-29T12:02:01.009Z,5563.13
2018-06-29T12:03:00.935Z,5692.50
2018-06-29T12:04:00.915Z,5529.38
2018-06-29T12:05:00.839Z,4561.88
2018-06-29T12:06:00.833Z,4168.13
2018-06-29T12:07:00.757Z,4770.00
2018-06-29T12:08:00.751Z,4674.38
2018-06-29T12:09:00.665Z,4921.88
2018-06-29T12:10:00.636Z,4815.00
2018-06-29T12:11:00.576Z,5023.13
2018-06-29T12:12:00.560Z,5141.25
2018-06-29T12:13:00.487Z,4573.13
2018-06-29T12:14:00.444Z,4044.38
2018-06-29T12:15:00.443Z,5259.38
2018-06-29T12:16:00.374Z,5101.88
2018-06-29T12:17:00.316Z,5591.25
2018-06-29T12:18:00.269Z,4680.00
2018-06-29T12:19:00.229Z,3076.88
2018-06-29T12:20:00.190Z,4111.88
2018-06-29T12:21:00.153Z,4635.00
2018-06-29T12:22:00.098Z,5186.25
2018-06-29T12:23:00.059Z,5259.38
2018-06-29T12:24:00.017Z,5023.13
2018-06-29T12:24:59.975Z,4961.25
2018-06-29T12:25:59.940Z,4713.75
2018-06-29T12:26:59.888Z,4528.13
2018-06-29T12:27:59.920Z,4179.38
2018-06-29T12:28:59.808Z,4477.50
2018-06-29T12:29:59.764Z,4258.13
2018-06-29T12:30:59.901Z,4342.50
2018-06-29T12:32:01.530Z,4308.75
2018-06-29T12:32:59.641Z,4370.63
2018-06-29T12:33:59.601Z,4286.25
2018-06-29T12:34:59.557Z,4747.50
2018-06-29T12:35:59.517Z,4567.50
2018-06-29T12:36:59.477Z,4978.13
2018-06-29T12:37:59.460Z,4983.75
2018-06-29T12:38:59.411Z,4989.38
2018-06-29T12:39:59.358Z,5478.75
2018-06-29T12:40:59.314Z,5613.75
2018-06-29T12:41:59.275Z,5473.13
2018-06-29T12:42:59.236Z,5203.13
2018-06-29T12:43:59.195Z,5135.63
2018-06-29T12:44:59.153Z,5146.88
2018-06-29T12:45:59.130Z,5107.50
2018-06-29T12:46:59.079Z,5113.13
2018-06-29T12:47:59.035Z,5287.50
2018-06-29T12:48:58.999Z,5338.13
2018-06-29T12:49:58.959Z,5400.00
2018-06-29T12:50:58.918Z,5377.50
2018-06-29T12:51:58.877Z,5551.88
2018-06-29T12:52:58.841Z,5681.25